首页
METAR-TAF:

METAR-TAF

机场 :

水牛城, 紐約州, 美国

纬度: 42-56-27N, 经度: 078-44-09W, 海拔: 220米

当前天气观测

该预报发布于1小时和31分钟前的18:54 UTC
风速26节,风向西南,有时为33节阵风
温度 -2°C
湿度 59%
气压 1029 hPa
能見度: 16.1公里
少量云层高于2800英尺

METAR: KBUF 211854Z 23026G33KT 10SM FEW028 M02/M09 A3040 RMK AO2 PK WND 22033/1853 SLP307 T10171094

时间: 15:25 (20:25 UTC)

预报

该预报发布于3小时和5分钟前的17:20 UTC
预报有效从21日的 18点(UTC)到 22日的 18点(UTC)
风速20节,风向西南,有时为30节阵风
能見度: 10公里
散云层高于3000英尺
从 21日的 2200点(UTC)
风速20节,风向西转西南,有时为30节阵风
能見度: 10公里
天空无云
从 22日的 1400点(UTC)
风速20节,风向西转西南,有时为30节阵风
能見度: 10公里
散云层高于3000英尺

TAF: KBUF 211720Z 2118/2218 23020G30KT P6SM SCT030 FM212200 24020G30KT P6SM SKC FM221400 24020G30KT P6SM SCT030

超过4000个机场的气象观测和天气预报(METAR&TAF报告)。

可查询的气象台以黄色和红色小点在地图上表示。

将鼠标移到小点上方,可查看气象台名称。

然后点击查看天气观测和预报。

如需切换地图:点击带黑十字的绿色按钮放大地图;点击带横线的绿色按钮缩小地图;或者点击绿色箭头查看邻近地区的地图。


METAR-TAF: